Main page
METAR-TAF:

METAR-TAF

Airports :

Vilnius Airport

Vilnius, Lithuania

latitude: 54-38N, longitude: 025-06E, elevation: 162 m

Current weather observation

The report was made 17 minutes ago, at 12:20 UTC
Wind 10 kt from the West/Southwest, varying between South/Southwest and West/Northwest
Temperature 20°C
Humidity 49%
Pressure 1020 hPa
Visibility 10 km or more
no clouds below 1500 m and no cumulonimbus

METAR: EYVI 211220Z 25010KT 210V300 CAVOK 20/09 Q1020 NOSIG

Time: 15:37 (12:37 UTC)

Forecast

The report was made 1 hour and 37 minutes ago, at 11:00 UTC
Forecast valid from 21 at 12 UTC to 22 at 12 UTC
Wind 7 kt from the Southwest
Visibility: 9000 m

TAF: EYVI 211100Z 2112/2212 23007KT 9000 NSC

Weather observations and forecasts of more than 4000 airports (METAR and TAF reports).

The available stations are represented by yellow and red dots on the map.

Hover mouse over dot to see the name of the station.

Then click to see weather observations and forecasts.

To change the map : click on the green buttons with a black cross to zoom in, on the green button with a dash to zoom out, or on the green arrows for adjacent maps.


METAR-TAF: